Time;durP1;ratioP1;P1;durP2;ratioP2;P2;SDS_P1;SDS_P2;PMS_P1;PMS_P2;Temp;Humidity;BMP_temperature;BMP_pressure;BME280_temperature;BME280_humidity;BME280_pressure;Samples;Min_cycle;Max_cycle;Signal;HPM_P1;HPM_P2
2024/01/25 00:01:24;;;;;;;18.63;3.20;;;;;;;9.94;94.42;148632.97;4983891;28;20578;-70
2024/01/25 00:03:52;;;;;;;19.40;3.00;;;;;;;9.98;92.96;148642.94;4997899;28;20550;-70
2024/01/25 00:06:20;;;;;;;18.03;3.03;;;;;;;10.00;92.96;148646.66;4995170;28;20631;-70
2024/01/25 00:08:46;;;;;;;15.53;2.70;;;;;;;10.12;91.12;148676.53;4995877;28;21072;-70
2024/01/25 00:11:13;;;;;;;17.67;2.83;;;;;;;10.14;91.94;148681.53;4993009;28;20230;-70
2024/01/25 00:13:48;;;;;;;18.83;3.10;;;;;;;10.21;91.34;148696.47;4992970;28;20726;-69
2024/01/25 00:16:15;;;;;;;19.27;2.93;;;;;;;10.19;91.12;148693.97;4990007;28;20755;-69
2024/01/25 00:18:42;;;;;;;13.07;2.33;;;;;;;10.19;92.15;148693.97;4995948;28;20296;-69
2024/01/25 00:21:10;;;;;;;18.13;2.70;;;;;;;10.19;92.17;148692.69;4969829;28;20234;-69
2024/01/25 00:23:36;;;;;;;17.80;3.07;;;;;;;10.18;92.91;148691.47;4999603;28;20235;-69
2024/01/25 00:26:04;;;;;;;24.13;3.23;;;;;;;10.19;93.01;148692.69;4996263;28;20231;-69
2024/01/25 00:28:33;;;;;;;22.63;3.30;;;;;;;10.16;92.99;148686.50;4990144;28;20322;-69
2024/01/25 00:30:59;;;;;;;22.57;2.90;;;;;;;10.20;93.74;148695.19;5001511;28;20237;-69
2024/01/25 00:33:28;;;;;;;18.50;2.70;;;;;;;10.25;93.42;148707.66;4991011;28;20692;-69
2024/01/25 00:35:55;;;;;;;18.13;2.87;;;;;;;10.25;94.02;148707.66;4994346;28;20218;-70
2024/01/25 00:38:24;;;;;;;21.50;3.60;;;;;;;10.22;95.14;148698.94;4994592;28;20226;-69
2024/01/25 00:40:51;;;;;;;19.00;2.60;;;;;;;10.18;94.37;148691.47;4992681;28;20229;-70
2024/01/25 00:43:18;;;;;;;16.60;2.73;;;;;;;10.21;94.12;148696.47;4992820;28;20229;-69
2024/01/25 00:45:45;;;;;;;18.07;2.63;;;;;;;10.21;95.50;148696.47;4995837;28;20237;-69
2024/01/25 00:48:13;;;;;;;13.70;2.60;;;;;;;10.19;95.90;148692.69;4992495;28;20550;-69
2024/01/25 00:50:40;;;;;;;18.83;2.77;;;;;;;10.19;95.75;148693.97;4994610;28;20240;-69
2024/01/25 00:53:08;;;;;;;23.83;2.90;;;;;;;10.16;96.41;148685.22;4990626;28;20221;-69
2024/01/25 00:55:35;;;;;;;15.63;3.07;;;;;;;10.12;96.83;148676.53;5001399;28;20237;-69
2024/01/25 00:58:02;;;;;;;15.70;3.10;;;;;;;10.04;98.35;148657.88;4995747;28;20254;-69
2024/01/25 01:00:30;;;;;;;11.63;2.20;;;;;;;10.03;98.51;148654.13;4993906;28;20231;-69
2024/01/25 01:02:58;;;;;;;12.00;2.40;;;;;;;10.01;98.83;148649.16;4992700;28;20227;-69
2024/01/25 01:05:26;;;;;;;17.33;2.77;;;;;;;9.99;99.26;148644.16;4989723;28;20262;-69
2024/01/25 01:07:53;;;;;;;18.23;2.33;;;;;;;9.98;99.72;148641.69;5010842;28;20241;-69
2024/01/25 01:10:20;;;;;;;16.50;2.90;;;;;;;10.01;99.48;148649.16;4992727;28;20225;-69
2024/01/25 01:12:48;;;;;;;12.33;2.17;;;;;;;10.02;99.70;148652.91;5004390;28;20714;-69
2024/01/25 01:15:14;;;;;;;16.50;3.03;;;;;;;10.01;100.00;148649.16;4997150;28;20249;-69
2024/01/25 01:17:41;;;;;;;15.37;2.47;;;;;;;9.99;100.00;148645.44;4997912;28;20225;-69
2024/01/25 01:20:08;;;;;;;18.20;2.80;;;;;;;9.95;100.00;148634.22;4996928;28;20580;-69
2024/01/25 01:22:35;;;;;;;16.90;2.40;;;;;;;9.96;100.00;148636.69;5000294;28;20242;-69
2024/01/25 01:25:02;;;;;;;12.20;2.67;;;;;;;9.93;100.00;148630.50;5004825;28;20216;-70
2024/01/25 01:27:28;;;;;;;14.43;2.80;;;;;;;9.89;100.00;148620.53;4998938;28;20229;-70
2024/01/25 01:29:56;;;;;;;17.37;2.70;;;;;;;9.95;100.00;148634.22;4998036;28;20742;-69
2024/01/25 01:32:23;;;;;;;19.13;3.33;;;;;;;9.92;100.00;148626.72;4998808;28;20234;-69
2024/01/25 01:34:49;;;;;;;11.70;2.23;;;;;;;9.89;100.00;148621.75;4998698;28;21779;-70
2024/01/25 01:37:16;;;;;;;23.07;3.23;;;;;;;9.86;100.00;148613.06;4996430;28;20225;-69
2024/01/25 01:39:42;;;;;;;22.27;3.03;;;;;;;9.84;100.00;148608.09;4999453;28;20231;-69
2024/01/25 01:42:09;;;;;;;28.83;4.83;;;;;;;9.85;100.00;148610.56;4996191;28;20222;-69
2024/01/25 01:44:36;;;;;;;17.27;2.90;;;;;;;9.82;100.00;148603.09;5002230;28;20233;-69
2024/01/25 01:47:04;;;;;;;14.00;3.10;;;;;;;9.88;100.00;148619.25;5000472;28;20741;-70
2024/01/25 01:49:31;;;;;;;12.57;2.63;;;;;;;9.81;100.00;148600.63;4996008;28;20230;-70
2024/01/25 01:51:58;;;;;;;17.23;2.90;;;;;;;9.76;100.00;148589.38;4999327;28;20230;-69
2024/01/25 01:54:25;;;;;;;12.17;2.73;;;;;;;9.78;100.00;148594.38;4988076;28;20973;-69
2024/01/25 01:56:52;;;;;;;13.77;2.50;;;;;;;9.83;100.00;148605.59;4997505;28;20225;-69
2024/01/25 01:59:20;;;;;;;15.70;2.90;;;;;;;9.81;100.00;148601.84;4983577;28;20683;-69
2024/01/25 02:01:47;;;;;;;19.90;2.43;;;;;;;9.77;100.00;148591.88;4995876;28;20474;-69
2024/01/25 02:04:15;;;;;;;18.73;2.97;;;;;;;9.77;100.00;148590.66;4996671;28;20605;-69
2024/01/25 02:06:43;;;;;;;16.50;3.60;;;;;;;9.74;100.00;148585.66;4998134;28;20758;-69
2024/01/25 02:09:10;;;;;;;19.27;2.83;;;;;;;9.70;100.00;148574.44;4993596;28;20222;-69
2024/01/25 02:11:36;;;;;;;19.07;2.90;;;;;;;9.66;100.00;148565.75;4998294;28;20716;-69
2024/01/25 02:14:03;;;;;;;20.23;3.10;;;;;;;9.65;100.00;148562.00;5003690;28;20221;-69
2024/01/25 02:16:30;;;;;;;16.07;3.30;;;;;;;9.63;100.00;148557.03;4993076;28;20235;-69
2024/01/25 02:18:57;;;;;;;14.70;2.50;;;;;;;9.58;100.00;148545.84;4988254;28;20222;-69
2024/01/25 02:21:25;;;;;;;19.87;3.13;;;;;;;9.51;100.00;148528.41;4994757;28;20242;-69
2024/01/25 02:23:53;;;;;;;19.87;3.63;;;;;;;9.47;100.00;148519.72;4998924;28;20217;-69
2024/01/25 02:26:20;;;;;;;19.13;3.03;;;;;;;9.37;100.00;148496.06;4994843;28;20269;-69
2024/01/25 02:28:46;;;;;;;17.40;2.57;;;;;;;9.38;100.00;148497.31;4997220;28;20238;-69
2024/01/25 02:31:13;;;;;;;18.77;3.23;;;;;;;9.21;100.00;148456.22;4995259;28;20624;-69
2024/01/25 02:33:39;;;;;;;15.43;2.93;;;;;;;9.12;100.00;148435.09;5002023;28;20237;-70
2024/01/25 02:36:07;;;;;;;17.73;4.00;;;;;;;9.06;100.00;148420.16;4996410;28;20218;-70
2024/01/25 02:38:33;;;;;;;19.43;4.00;;;;;;;8.91;100.00;148384.09;4994707;28;20230;-70
2024/01/25 02:41:01;;;;;;;24.33;3.30;;;;;;;8.81;100.00;148361.72;4993652;28;20689;-70
2024/01/25 02:43:29;;;;;;;17.13;3.10;;;;;;;8.78;100.00;148352.97;4989786;28;20226;-70
2024/01/25 02:45:56;;;;;;;16.23;3.80;;;;;;;8.65;100.00;148321.91;4998388;28;20224;-70
2024/01/25 02:48:22;;;;;;;15.37;2.77;;;;;;;8.71;100.00;148338.06;4990169;28;20248;-70
2024/01/25 02:50:49;;;;;;;14.97;2.93;;;;;;;8.62;100.00;148315.66;4996822;28;20597;-70
2024/01/25 02:53:16;;;;;;;13.70;3.00;;;;;;;8.60;100.00;148310.69;4998922;28;20228;-70
2024/01/25 02:55:42;;;;;;;15.50;3.50;;;;;;;8.54;100.00;148297.03;5003663;28;20616;-70
2024/01/25 02:58:10;;;;;;;22.20;3.67;;;;;;;8.53;100.00;148294.53;4991972;28;20280;-70
2024/01/25 03:00:37;;;;;;;20.07;3.77;;;;;;;8.52;100.00;148292.06;4996596;28;20731;-70
2024/01/25 03:03:04;;;;;;;18.70;3.43;;;;;;;8.52;100.00;148290.78;4994302;28;20224;-70
2024/01/25 03:05:30;;;;;;;19.23;3.60;;;;;;;8.49;100.00;148284.59;4994765;28;20596;-70
2024/01/25 03:07:57;;;;;;;18.70;3.37;;;;;;;8.48;100.00;148282.06;4998290;28;20728;-70
2024/01/25 03:10:24;;;;;;;19.73;3.17;;;;;;;8.49;100.00;148283.31;4996133;28;20232;-70
2024/01/25 03:12:51;;;;;;;24.10;3.83;;;;;;;8.48;100.00;148280.84;4998885;28;20308;-70
2024/01/25 03:15:18;;;;;;;16.80;3.20;;;;;;;8.47;100.00;148279.56;4994090;28;20604;-70
2024/01/25 03:17:45;;;;;;;27.97;3.40;;;;;;;8.49;100.00;148283.31;4998680;28;20238;-70
2024/01/25 03:20:12;;;;;;;21.37;3.80;;;;;;;8.50;100.00;148287.06;4992634;28;20245;-70
2024/01/25 03:22:38;;;;;;;19.17;2.70;;;;;;;8.51;100.00;148288.28;4995095;28;20236;-70
2024/01/25 03:25:06;;;;;;;25.87;3.80;;;;;;;8.49;100.00;148283.31;4994503;28;20311;-70
2024/01/25 03:27:32;;;;;;;23.33;3.27;;;;;;;8.47;100.00;148278.34;5003695;28;20228;-70
2024/01/25 03:29:59;;;;;;;22.77;3.17;;;;;;;8.50;100.00;148287.06;5000272;28;20225;-70
2024/01/25 03:32:27;;;;;;;16.23;2.70;;;;;;;8.48;100.00;148280.84;4990665;28;20236;-71
2024/01/25 03:34:53;;;;;;;21.63;3.50;;;;;;;8.47;100.00;148279.56;4994827;28;20225;-70
2024/01/25 03:37:20;;;;;;;21.63;3.30;;;;;;;8.46;100.00;148277.06;4992179;28;20217;-70
2024/01/25 03:39:46;;;;;;;17.77;3.17;;;;;;;8.48;100.00;148280.84;4995951;28;20237;-70
2024/01/25 03:42:13;;;;;;;24.73;4.17;;;;;;;8.47;100.00;148279.56;4994131;28;20225;-70
2024/01/25 03:44:42;;;;;;;17.47;3.90;;;;;;;8.47;100.00;148278.34;4997527;28;20563;-70
2024/01/25 03:47:08;;;;;;;21.87;3.50;;;;;;;8.47;100.00;148278.34;4992715;28;20816;-70
2024/01/25 03:49:36;;;;;;;13.10;3.10;;;;;;;8.47;100.00;148278.34;4994133;28;20228;-70
2024/01/25 03:52:03;;;;;;;25.10;3.07;;;;;;;8.47;100.00;148279.56;4995079;28;20221;-70
2024/01/25 03:54:30;;;;;;;23.80;3.33;;;;;;;8.45;100.00;148273.38;4993421;28;20230;-70
2024/01/25 03:56:57;;;;;;;26.07;3.13;;;;;;;8.42;100.00;148268.41;4989048;28;20704;-70
2024/01/25 03:59:23;;;;;;;18.33;3.10;;;;;;;8.40;100.00;148262.16;4990918;28;20229;-69
2024/01/25 04:01:50;;;;;;;22.67;3.93;;;;;;;8.34;100.00;148248.50;4994380;28;20233;-69
2024/01/25 04:04:17;;;;;;;24.87;3.43;;;;;;;8.38;100.00;148257.19;4993026;28;20228;-69
2024/01/25 04:06:46;;;;;;;22.83;3.43;;;;;;;8.37;100.00;148254.69;4993694;28;20302;-69
2024/01/25 04:09:15;;;;;;;22.30;3.57;;;;;;;8.34;100.00;148248.50;5000038;28;20604;-70
2024/01/25 04:11:41;;;;;;;17.80;3.83;;;;;;;8.32;100.00;148243.53;4996683;28;20235;-70
2024/01/25 04:14:08;;;;;;;28.57;3.80;;;;;;;8.29;100.00;148236.06;4994727;28;20228;-70
2024/01/25 04:16:35;;;;;;;21.10;3.20;;;;;;;8.39;100.00;148260.94;4997485;28;20270;-70
2024/01/25 04:19:01;;;;;;;18.63;3.40;;;;;;;8.37;100.00;148255.97;4996302;28;20224;-70
2024/01/25 04:21:28;;;;;;;31.17;4.90;;;;;;;8.38;100.00;148257.19;4992036;28;21127;-70
2024/01/25 04:23:57;;;;;;;20.20;3.33;;;;;;;8.38;100.00;148258.44;4994818;28;20239;-70
2024/01/25 04:26:23;;;;;;;17.60;3.20;;;;;;;8.37;100.00;148255.97;4995413;28;20304;-69
2024/01/25 04:28:50;;;;;;;25.33;3.83;;;;;;;8.34;100.00;148248.50;4995537;28;20236;-69
2024/01/25 04:31:17;;;;;;;22.47;4.00;;;;;;;8.33;100.00;148244.75;5213627;23;20255;-69
2024/01/25 04:33:43;;;;;;;21.23;3.47;;;;;;;8.33;100.00;148244.75;4996123;28;20232;-69
2024/01/25 04:36:10;;;;;;;28.53;3.77;;;;;;;8.33;100.00;148244.75;4989450;28;20235;-69
2024/01/25 04:38:36;;;;;;;22.17;3.30;;;;;;;8.33;100.00;148246.00;4992059;28;20700;-69
2024/01/25 04:41:05;;;;;;;27.93;3.83;;;;;;;8.30;100.00;148237.28;4989260;28;20228;-69
2024/01/25 04:43:36;;;;;;;21.43;3.73;;;;;;;8.31;100.00;148241.03;4963023;28;20256;-69
2024/01/25 04:46:03;;;;;;;24.07;3.50;;;;;;;8.27;100.00;148232.31;4979400;28;20312;-69
2024/01/25 04:48:29;;;;;;;22.60;3.73;;;;;;;8.25;100.00;148226.09;4972639;28;20226;-69
2024/01/25 04:50:57;;;;;;;31.57;4.47;;;;;;;8.26;100.00;148228.59;4982983;28;20230;-69
2024/01/25 04:53:23;;;;;;;22.53;3.43;;;;;;;8.27;100.00;148231.09;4975078;28;20225;-69
2024/01/25 04:55:55;;;;;;;17.97;3.37;;;;;;;8.27;100.00;148232.31;4969122;28;20759;-69
2024/01/25 04:58:23;;;;;;;18.37;3.07;;;;;;;8.28;100.00;148234.78;4975317;28;20225;-69
2024/01/25 05:00:50;;;;;;;22.87;4.27;;;;;;;8.26;100.00;148228.59;4976606;28;20230;-70
2024/01/25 05:03:17;;;;;;;22.30;2.40;;;;;;;8.23;100.00;148221.13;4976060;28;20289;-70
2024/01/25 05:05:43;;;;;;;14.33;3.20;;;;;;;8.21;100.00;148217.38;4980943;28;20575;-69
2024/01/25 05:08:10;;;;;;;17.33;2.97;;;;;;;8.17;100.00;148206.22;4978040;28;20226;-69
2024/01/25 05:10:37;;;;;;;14.33;3.07;;;;;;;8.19;100.00;148211.19;4976135;28;20701;-69
2024/01/25 05:13:03;;;;;;;14.63;2.50;;;;;;;8.19;100.00;148211.19;4977535;28;20232;-69
2024/01/25 05:15:31;;;;;;;13.80;2.73;;;;;;;8.13;100.00;148197.47;4976148;28;20228;-69
2024/01/25 05:17:58;;;;;;;16.47;3.00;;;;;;;8.16;100.00;148204.94;4979104;28;20224;-69
2024/01/25 05:20:31;;;;;;;13.90;2.23;;;;;;;8.13;100.00;148198.75;4977262;28;20225;-70
2024/01/25 05:22:58;;;;;;;12.53;2.27;;;;;;;8.10;100.00;148191.28;4976764;28;20226;-70
2024/01/25 05:25:25;;;;;;;13.03;2.50;;;;;;;8.09;100.00;148187.53;4973933;28;20210;-70
2024/01/25 05:27:52;;;;;;;24.27;7.67;;;;;;;8.11;100.00;148193.78;4978875;28;20230;-70
2024/01/25 05:30:19;;;;;;;18.77;4.53;;;;;;;8.09;100.00;148188.81;4973920;28;20233;-69
2024/01/25 05:32:48;;;;;;;15.07;3.00;;;;;;;8.08;100.00;148186.31;4979160;28;20716;-70
2024/01/25 05:35:15;;;;;;;14.73;2.60;;;;;;;8.07;100.00;148183.81;4976185;28;20232;-69
2024/01/25 05:37:41;;;;;;;20.47;4.70;;;;;;;8.05;100.00;148178.84;4978991;28;20237;-69
2024/01/25 05:40:10;;;;;;;12.30;2.57;;;;;;;8.08;100.00;148185.03;4975158;28;20225;-70
2024/01/25 05:42:36;;;;;;;14.03;4.47;;;;;;;8.06;100.00;148180.06;4978226;28;20237;-70
2024/01/25 05:45:03;;;;;;;22.37;3.07;;;;;;;8.07;100.00;148182.56;4979586;28;20222;-70
2024/01/25 05:47:30;;;;;;;17.77;3.60;;;;;;;8.06;100.00;148180.06;4978118;28;20226;-70
2024/01/25 05:49:58;;;;;;;19.83;6.03;;;;;;;7.98;100.00;148162.66;4985114;28;20577;-70
2024/01/25 05:52:25;;;;;;;11.50;2.70;;;;;;;7.96;100.00;148156.47;4973448;28;21530;-70
2024/01/25 05:54:52;;;;;;;14.40;3.60;;;;;;;7.94;100.00;148152.75;4975652;28;20249;-70
2024/01/25 05:57:19;;;;;;;13.70;3.27;;;;;;;7.90;100.00;148141.56;4975205;28;20221;-69
2024/01/25 05:59:45;;;;;;;12.53;4.00;;;;;;;7.84;100.00;148127.91;4954815;28;20233;-69
2024/01/25 06:02:12;;;;;;;13.93;3.67;;;;;;;7.81;100.00;148121.66;4970348;28;20232;-70
2024/01/25 06:04:39;;;;;;;33.70;13.20;;;;;;;7.81;100.00;148120.44;4978072;28;20221;-69
2024/01/25 06:07:07;;;;;;;21.03;4.37;;;;;;;7.75;100.00;148105.53;4974301;28;20220;-69
2024/01/25 06:09:34;;;;;;;17.20;3.53;;;;;;;7.75;100.00;148105.53;4971814;28;20236;-69
2024/01/25 06:12:01;;;;;;;11.97;2.73;;;;;;;7.75;100.00;148106.75;4975938;28;20328;-70
2024/01/25 06:14:27;;;;;;;17.63;2.80;;;;;;;7.68;100.00;148089.34;4972921;28;20244;-70
2024/01/25 06:16:54;;;;;;;15.03;2.70;;;;;;;7.64;100.00;148079.38;4993745;28;20229;-69
2024/01/25 06:19:21;;;;;;;17.47;2.90;;;;;;;7.62;100.00;148074.41;4986874;28;20687;-69
2024/01/25 06:21:48;;;;;;;15.43;3.47;;;;;;;7.56;100.00;148059.50;4968051;28;20232;-70
2024/01/25 06:24:15;;;;;;;16.50;2.90;;;;;;;7.53;100.00;148054.53;4983078;28;20689;-70
2024/01/25 06:26:42;;;;;;;15.70;4.40;;;;;;;7.49;100.00;148044.59;4978688;28;20238;-70
2024/01/25 06:29:09;;;;;;;16.37;3.00;;;;;;;7.46;100.00;148035.91;4982497;28;20251;-70
2024/01/25 06:31:42;;;;;;;12.80;2.80;;;;;;;7.44;100.00;148032.16;4977911;28;20241;-70
2024/01/25 06:34:09;;;;;;;13.90;2.70;;;;;;;7.39;100.00;148021.00;4973080;28;20788;-70
2024/01/25 06:36:35;;;;;;;15.60;3.60;;;;;;;7.36;100.00;148012.31;4988259;28;20241;-70
2024/01/25 06:39:03;;;;;;;11.43;2.73;;;;;;;7.30;100.00;147997.41;4976888;28;20602;-70
2024/01/25 06:41:31;;;;;;;13.57;2.27;;;;;;;7.31;100.00;147999.88;4973774;28;20558;-69
2024/01/25 06:43:57;;;;;;;9.43;1.93;;;;;;;7.34;100.00;148008.56;4976960;28;20230;-70
2024/01/25 06:46:24;;;;;;;12.80;2.70;;;;;;;7.36;100.00;148012.31;4971998;28;20244;-69
2024/01/25 06:48:51;;;;;;;11.00;1.47;;;;;;;7.40;100.00;148022.25;4966302;28;20814;-69
2024/01/25 06:51:18;;;;;;;9.43;1.97;;;;;;;7.43;100.00;148029.66;4975012;28;20231;-69
2024/01/25 06:53:45;;;;;;;11.17;2.67;;;;;;;7.47;100.00;148039.63;4974746;28;20240;-69
2024/01/25 06:56:11;;;;;;;11.10;1.97;;;;;;;7.49;100.00;148043.38;4973869;28;20561;-71
2024/01/25 06:58:39;;;;;;;16.77;4.57;;;;;;;7.50;100.00;148045.84;4965157;28;20586;-71
2024/01/25 07:01:06;;;;;;;13.32;3.28;;;;;;;7.52;100.00;148050.81;4967974;28;20462;-70
2024/01/25 07:03:33;;;;;;;10.00;1.90;;;;;;;7.54;100.00;148057.00;4971908;28;20233;-71
2024/01/25 07:06:00;;;;;;;11.90;2.27;;;;;;;7.54;100.00;148055.78;4978768;28;20245;-71
2024/01/25 07:08:29;;;;;;;9.83;3.70;;;;;;;7.52;100.00;148052.03;4975031;28;20229;-70
2024/01/25 07:10:56;;;;;;;10.07;2.83;;;;;;;7.45;100.00;148034.63;4977682;28;20221;-70
2024/01/25 07:13:23;;;;;;;10.30;2.83;;;;;;;7.42;100.00;148025.97;4972604;28;20221;-70
2024/01/25 07:15:51;;;;;;;12.60;4.67;;;;;;;7.32;100.00;148002.38;4975763;28;20341;-70
2024/01/25 07:18:17;;;;;;;15.07;2.00;;;;;;;7.30;100.00;147998.63;4971054;28;20222;-71
2024/01/25 07:20:44;;;;;;;8.43;2.10;;;;;;;7.34;100.00;148007.34;4973401;28;20224;-70
2024/01/25 07:23:11;;;;;;;10.60;2.23;;;;;;;7.35;100.00;148011.06;4971943;28;20230;-70
2024/01/25 07:25:38;;;;;;;13.00;1.83;;;;;;;7.38;100.00;148017.28;4976228;28;20222;-71
2024/01/25 07:28:05;;;;;;;13.07;1.80;;;;;;;7.37;100.00;148016.03;4981465;28;20217;-71
2024/01/25 07:30:31;;;;;;;12.10;1.80;;;;;;;7.44;100.00;148030.94;4974722;28;20232;-71
2024/01/25 07:32:59;;;;;;;15.07;4.30;;;;;;;7.48;100.00;148042.09;4973029;28;20227;-71
2024/01/25 07:35:26;;;;;;;18.50;3.87;;;;;;;7.54;100.00;148057.00;4971583;28;21046;-71
2024/01/25 07:37:52;;;;;;;21.87;5.43;;;;;;;7.60;100.00;148070.72;4976644;28;20238;-71
2024/01/25 07:40:19;;;;;;;19.20;3.60;;;;;;;7.66;100.00;148085.63;4970914;28;20235;-71
2024/01/25 07:42:47;;;;;;;13.83;2.53;;;;;;;7.73;100.00;148100.56;4973657;28;20585;-71
2024/01/25 07:45:14;;;;;;;19.40;2.40;;;;;;;7.73;100.00;148101.75;4974092;28;20218;-71
2024/01/25 07:47:41;;;;;;;14.53;1.90;;;;;;;7.78;100.00;148114.19;4976563;28;20264;-69
2024/01/25 07:50:10;;;;;;;19.27;8.40;;;;;;;7.74;100.00;148104.25;4970771;28;20264;-70
2024/01/25 07:52:37;;;;;;;9.83;2.53;;;;;;;7.71;100.00;148095.56;4956764;28;20237;-71
2024/01/25 07:55:04;;;;;;;7.90;2.03;;;;;;;7.71;100.00;148095.56;4970986;28;20222;-70
2024/01/25 07:57:31;;;;;;;12.40;2.23;;;;;;;7.68;100.00;148089.34;4968772;28;20231;-70
2024/01/25 07:59:58;;;;;;;11.03;2.20;;;;;;;7.68;100.00;148090.59;4973315;28;20243;-70
2024/01/25 08:02:24;;;;;;;28.47;11.53;;;;;;;7.76;100.00;148109.22;4970918;28;20233;-67
2024/01/25 08:04:51;;;;;;;13.67;4.97;;;;;;;7.94;100.00;148151.50;4976461;28;20233;-62
2024/01/25 08:07:19;;;;;;;15.33;7.13;;;;;;;7.91;100.00;148145.31;4970870;28;20221;-64
2024/01/25 08:09:46;;;;;;;22.27;7.60;;;;;;;8.02;100.00;148171.41;4973863;28;20232;-66
2024/01/25 08:12:12;;;;;;;13.37;2.27;;;;;;;7.91;100.00;148144.03;4971717;28;20250;-70
2024/01/25 08:14:53;;;;;;;9.90;2.33;;;;;;;7.74;100.00;148104.25;4974826;28;20241;-70
2024/01/25 08:17:20;;;;;;;13.03;4.93;;;;;;;7.65;100.00;148083.16;4970327;28;20209;-69
2024/01/25 08:19:47;;;;;;;27.27;11.40;;;;;;;7.60;100.00;148069.44;4978909;28;20228;-70
2024/01/25 08:22:13;;;;;;;24.17;10.93;;;;;;;7.58;100.00;148064.47;4978652;28;20704;-69
2024/01/25 08:24:41;;;;;;;14.70;6.53;;;;;;;7.54;100.00;148055.78;4967265;28;20241;-70
2024/01/25 08:27:08;;;;;;;19.30;8.20;;;;;;;7.53;100.00;148054.53;4966686;28;20229;-70
2024/01/25 08:29:35;;;;;;;11.30;2.03;;;;;;;7.55;100.00;148058.28;4981721;28;20233;-70
2024/01/25 08:32:02;;;;;;;21.30;7.70;;;;;;;7.56;100.00;148059.50;4968363;28;20237;-70
2024/01/25 08:34:28;;;;;;;10.50;2.33;;;;;;;7.58;100.00;148064.47;4975320;28;20573;-70
2024/01/25 08:36:55;;;;;;;16.90;5.10;;;;;;;7.60;100.00;148069.44;4977686;28;20237;-70
2024/01/25 08:39:22;;;;;;;10.23;3.10;;;;;;;7.62;100.00;148074.41;4975459;28;20239;-70
2024/01/25 08:41:50;;;;;;;13.27;2.83;;;;;;;7.64;100.00;148079.38;4979562;28;20229;-70
2024/01/25 08:44:17;;;;;;;13.23;2.70;;;;;;;7.70;100.00;148093.09;4976958;28;20685;-70
2024/01/25 08:46:43;;;;;;;15.37;2.13;;;;;;;7.75;100.00;148105.53;4995401;28;20229;-70
2024/01/25 08:49:12;;;;;;;12.13;4.13;;;;;;;7.78;100.00;148114.19;4976385;28;20225;-70
2024/01/25 08:51:38;;;;;;;11.70;3.07;;;;;;;7.87;100.00;148134.09;4979801;28;20274;-71
2024/01/25 08:54:05;;;;;;;12.43;3.80;;;;;;;7.95;100.00;148155.19;4980832;28;20232;-70
2024/01/25 08:56:34;;;;;;;15.27;3.10;;;;;;;8.04;100.00;148176.38;4955546;28;20245;-70
2024/01/25 08:59:02;;;;;;;9.43;2.53;;;;;;;8.16;100.00;148204.94;4963827;28;20225;-70
2024/01/25 09:01:29;;;;;;;12.07;1.80;;;;;;;8.30;100.00;148238.53;4966351;28;20242;-70
2024/01/25 09:03:57;;;;;;;8.73;2.00;;;;;;;8.47;100.00;148279.56;4971159;28;20229;-70
2024/01/25 09:06:23;;;;;;;11.00;4.10;;;;;;;8.65;100.00;148323.13;4977452;28;20724;-70
2024/01/25 09:08:50;;;;;;;6.67;1.30;;;;;;;8.79;100.00;148356.72;4978102;28;20234;-70
2024/01/25 09:11:16;;;;;;;7.97;1.37;;;;;;;8.80;100.00;148359.22;4976114;28;20250;-70
2024/01/25 09:13:44;;;;;;;8.20;2.13;;;;;;;8.93;100.00;148390.31;4976041;28;20917;-70
2024/01/25 09:16:13;;;;;;;7.73;1.40;;;;;;;9.14;100.00;148440.06;4977401;28;20227;-69
2024/01/25 09:18:39;;;;;;;13.60;4.37;;;;;;;9.14;100.00;148440.06;4981887;28;20223;-70
2024/01/25 09:21:06;;;;;;;17.60;9.07;;;;;;;9.20;100.00;148453.75;4973437;28;20232;-69
2024/01/25 09:23:32;;;;;;;8.53;2.47;;;;;;;9.15;100.00;148443.78;4977709;28;20629;-70
2024/01/25 09:25:59;;;;;;;7.17;1.67;;;;;;;9.05;100.00;148418.91;4957725;28;20230;-70
2024/01/25 09:28:29;;;;;;;8.07;1.70;;;;;;;9.00;100.00;148406.50;4971942;28;20235;-70
2024/01/25 09:30:56;;;;;;;13.77;6.20;;;;;;;8.71;100.00;148338.06;4965862;28;20728;-70
2024/01/25 09:33:24;;;;;;;10.23;2.40;;;;;;;8.83;100.00;148365.44;4970804;28;20233;-70
2024/01/25 09:35:51;;;;;;;8.53;1.87;;;;;;;8.86;100.00;148374.16;4979108;28;20578;-69
2024/01/25 09:38:17;;;;;;;8.37;1.60;;;;;;;8.98;100.00;148402.75;4972672;28;20235;-70
2024/01/25 09:40:44;;;;;;;7.93;1.20;;;;;;;9.01;100.00;148410.22;4973442;28;20228;-70
2024/01/25 09:43:12;;;;;;;8.90;2.10;;;;;;;9.26;100.00;148468.66;4973448;28;20230;-70
2024/01/25 09:45:40;;;;;;;9.90;2.07;;;;;;;9.38;100.00;148497.31;4978671;28;20573;-70
2024/01/25 09:48:07;;;;;;;8.97;1.43;;;;;;;9.42;100.00;148508.50;4975763;28;20225;-70
2024/01/25 09:50:36;;;;;;;13.43;4.10;;;;;;;9.51;100.00;148528.41;4971886;28;20233;-70
2024/01/25 09:53:05;;;;;;;11.53;2.30;;;;;;;9.63;100.00;148558.28;4978638;28;20264;-70
2024/01/25 09:55:38;;;;;;;7.77;1.70;;;;;;;9.60;98.54;148552.03;4975798;28;20261;-70
2024/01/25 09:58:07;;;;;;;7.17;1.70;;;;;;;9.87;98.89;148615.56;4975099;28;20629;-70
2024/01/25 10:00:34;;;;;;;12.17;2.40;;;;;;;9.93;97.87;148630.50;4957704;28;20231;-71
2024/01/25 10:03:00;;;;;;;7.70;1.90;;;;;;;9.87;97.41;148616.78;4976144;28;20335;-70
2024/01/25 10:05:27;;;;;;;15.53;2.67;;;;;;;9.81;100.00;148601.84;4973897;28;20243;-70
2024/01/25 10:08:00;;;;;;;11.07;2.87;;;;;;;10.00;100.00;148646.66;4977550;28;20723;-70
2024/01/25 10:10:27;;;;;;;8.13;1.03;;;;;;;10.32;98.38;148723.84;4972904;28;20246;-70
2024/01/25 10:12:56;;;;;;;6.40;1.93;;;;;;;10.31;97.29;148721.38;4976234;28;20248;-70
2024/01/25 10:15:24;;;;;;;6.53;1.90;;;;;;;10.47;96.92;148760.00;4970816;28;20228;-70
2024/01/25 10:17:52;;;;;;;6.10;1.50;;;;;;;10.42;98.29;148747.53;4978822;28;20846;-70
2024/01/25 10:20:20;;;;;;;2.80;1.33;;;;;;;10.27;98.61;148712.63;4972531;28;20223;-70
2024/01/25 10:22:47;;;;;;;4.90;1.17;;;;;;;10.24;98.66;148703.94;4973533;28;20236;-70
2024/01/25 10:25:15;;;;;;;5.33;1.43;;;;;;;10.14;98.96;148680.25;4957565;28;20584;-70
2024/01/25 10:27:42;;;;;;;6.53;2.13;;;;;;;10.10;99.40;148670.28;4975350;28;20232;-71
2024/01/25 10:30:11;;;;;;;5.67;1.40;;;;;;;10.17;98.22;148689.00;4957107;28;20603;-70
2024/01/25 10:32:38;;;;;;;8.37;3.67;;;;;;;10.15;99.07;148684.00;4988683;28;20246;-70
2024/01/25 10:35:07;;;;;;;12.10;4.27;;;;;;;10.04;100.00;148656.63;4977189;28;20223;-70
2024/01/25 10:37:34;;;;;;;9.90;2.00;;;;;;;9.78;100.00;148594.38;4953584;28;20238;-70
2024/01/25 10:40:01;;;;;;;12.83;2.10;;;;;;;9.66;100.00;148564.50;4983046;28;20216;-70
2024/01/25 10:42:29;;;;;;;8.43;1.73;;;;;;;9.80;100.00;148598.13;4973067;28;20236;-69
2024/01/25 10:44:56;;;;;;;14.20;1.93;;;;;;;9.86;100.00;148613.06;4976758;28;20247;-70
2024/01/25 10:47:24;;;;;;;11.33;1.77;;;;;;;9.96;100.00;148637.97;4972442;28;20302;-70
2024/01/25 10:49:52;;;;;;;4.43;1.20;;;;;;;10.04;100.00;148656.63;4974190;28;20242;-70
2024/01/25 10:52:21;;;;;;;7.83;1.00;;;;;;;10.11;100.00;148674.03;4980176;28;20613;-70
2024/01/25 10:54:48;;;;;;;9.80;1.57;;;;;;;10.30;100.00;148718.88;4967771;28;20230;-70
2024/01/25 10:57:14;;;;;;;5.63;1.53;;;;;;;10.30;98.07;148718.88;4965709;28;20225;-70
2024/01/25 10:59:42;;;;;;;8.27;1.20;;;;;;;10.26;99.01;148710.13;4973252;28;20239;-70
2024/01/25 11:02:09;;;;;;;6.40;1.60;;;;;;;10.28;98.64;148715.13;4972514;28;20716;-70
2024/01/25 11:04:36;;;;;;;5.30;1.20;;;;;;;10.45;99.09;148755.03;4977062;28;20317;-70
2024/01/25 11:07:08;;;;;;;5.30;1.57;;;;;;;10.67;97.18;148807.34;4975973;28;20679;-70
2024/01/25 11:09:36;;;;;;;10.27;1.57;;;;;;;10.40;96.80;148742.56;4974721;28;20220;-70
2024/01/25 11:12:12;;;;;;;8.43;1.83;;;;;;;10.75;93.09;148828.50;4976177;28;20238;-70
2024/01/25 11:14:39;;;;;;;8.37;1.67;;;;;;;10.45;95.10;148755.03;4961920;28;20254;-70
2024/01/25 11:17:20;;;;;;;7.63;1.30;;;;;;;10.59;96.66;148788.69;4971980;28;20218;-70
2024/01/25 11:19:48;;;;;;;9.27;1.70;;;;;;;10.69;95.99;148812.31;4974507;28;20285;-70